Montesano, Washington
Current Conditions -  °F | °C
As of 10:53 PM on Friday 19 Dec 2014 (Local Time) from KHQM Reporting Station
Light Rain Light Rain  
Wind Chill: 41°   Ceiling: 3600
Heat Index: 46°   Visibility: 7mi
Dew Point: 44°   Wind: 9mph
Humidity: 93%   Direction: 60°ENE
Pressure: 29.81"   Gusts: NA
Location:  46.98°N, 123.6°W
Report Text: KHQM 200653Z AUTO 06008KT 7SM -RA BKN036 OVC047 08/07 A2981 RMK AO2 SLP098 P0003 T00780067
Loading
Personal Weather Stations






























Interactive Weather Map New forecast layout! Learn more

10-Day Weather Forecast

Advertisements
Track Severe Weather on mobile